Terminal Aerodrome Forecast
Issued by NWS Portland, OR

Home | Current Version | Previous Version | Text Only | Print | Product List | Glossary On
Versions: 1 2 3 4 5 6 7 8 9 10 11 12 13
000
FTUS46 KPQR 031722
TAFEUG
TAF
KEUG 031722Z 0318/0418 VRB03KT P6SM SCT130
     FM031900 25004KT P6SM SCT080 BKN200
     FM032200 32006KT P6SM BKN050
     FM040900 36006KT P6SM OVC015=

USA.gov is the U.S. government's official web portal to all federal, state and local government web resources and services.